Time;durP1;ratioP1;P1;durP2;ratioP2;P2;SDS_P1;SDS_P2;PMS_P1;PMS_P2;Temp;Humidity;BMP_temperature;BMP_pressure;BME280_temperature;BME280_humidity;BME280_pressure;Samples;Min_cycle;Max_cycle;Signal;HPM_P1;HPM_P2
2021/11/22 00:01:07;;;;;;;28.25;18.50;;;6.30;99.90;;;;;;5055496;28;20241;-72
2021/11/22 00:03:34;;;;;;;24.90;17.65;;;6.50;99.90;;;;;;5055638;28;20204;-73
2021/11/22 00:06:01;;;;;;;26.85;18.25;;;6.60;99.90;;;;;;5055319;28;20720;-73
2021/11/22 00:08:28;;;;;;;28.55;18.45;;;6.80;99.90;;;;;;5055488;28;20266;-72
2021/11/22 00:10:56;;;;;;;28.42;18.58;;;6.80;99.90;;;;;;5055290;28;20677;-71
2021/11/22 00:13:23;;;;;;;25.88;17.77;;;6.70;99.90;;;;;;5055133;28;20290;-72
2021/11/22 00:15:51;;;;;;;23.40;17.50;;;6.80;99.90;;;;;;5054812;28;20261;-72
2021/11/22 00:18:18;;;;;;;28.15;19.20;;;6.80;99.90;;;;;;5055120;28;20604;-72
2021/11/22 00:20:45;;;;;;;28.35;18.40;;;6.70;99.90;;;;;;5055183;28;20239;-72
2021/11/22 00:23:12;;;;;;;29.30;19.08;;;6.80;99.90;;;;;;5055129;28;20235;-73
2021/11/22 00:25:39;;;;;;;31.73;19.50;;;6.90;99.90;;;;;;5055084;28;20602;-72
2021/11/22 00:28:07;;;;;;;33.95;18.77;;;6.90;99.90;;;;;;5054746;28;20318;-72
2021/11/22 00:30:34;;;;;;;29.77;18.35;;;7.00;99.90;;;;;;5055185;28;20231;-72
2021/11/22 00:33:02;;;;;;;29.50;19.02;;;7.00;99.90;;;;;;5054811;28;20242;-71
2021/11/22 00:35:33;;;;;;;27.15;18.00;;;7.10;99.90;;;;;;5054915;28;20234;-72
2021/11/22 00:38:02;;;;;;;29.23;17.85;;;7.10;99.90;;;;;;5055129;28;20298;-72
2021/11/22 00:40:29;;;;;;;28.77;18.20;;;7.20;99.90;;;;;;5055268;28;20206;-72
2021/11/22 00:42:56;;;;;;;30.80;19.50;;;7.20;99.90;;;;;;5055444;28;20299;-72
2021/11/22 00:45:26;;;;;;;28.67;18.25;;;7.30;99.90;;;;;;5055029;28;20211;-73
2021/11/22 00:47:54;;;;;;;28.60;18.20;;;7.30;99.90;;;;;;5055347;28;20234;-71
2021/11/22 00:50:21;;;;;;;28.70;17.27;;;7.30;99.90;;;;;;5055074;28;20253;-71
2021/11/22 00:52:48;;;;;;;27.95;17.27;;;7.30;99.90;;;;;;5054813;28;20630;-72
2021/11/22 00:55:15;;;;;;;26.48;16.85;;;7.30;99.90;;;;;;5053909;28;20282;-72
2021/11/22 00:57:42;;;;;;;30.25;18.48;;;7.40;99.90;;;;;;5054543;28;20207;-72
2021/11/22 01:00:12;;;;;;;30.63;18.67;;;7.40;99.90;;;;;;5054137;28;20262;-72
2021/11/22 01:02:40;;;;;;;29.90;18.55;;;7.30;99.90;;;;;;5054282;28;20246;-72
2021/11/22 01:05:08;;;;;;;27.80;18.80;;;7.20;99.90;;;;;;5053934;28;20231;-72
2021/11/22 01:07:35;;;;;;;28.35;18.40;;;7.10;99.90;;;;;;5054112;28;20294;-72
2021/11/22 01:10:04;;;;;;;31.30;18.75;;;7.00;99.90;;;;;;5053710;28;20784;-72
2021/11/22 01:12:31;;;;;;;32.70;19.02;;;7.00;99.90;;;;;;5053932;28;20234;-72
2021/11/22 01:15:00;;;;;;;31.63;18.85;;;7.00;99.90;;;;;;5053496;28;20231;-72
2021/11/22 01:17:28;;;;;;;31.95;18.88;;;7.00;99.90;;;;;;5053906;28;20640;-71
2021/11/22 01:19:56;;;;;;;35.55;19.42;;;7.00;99.90;;;;;;5053895;28;20319;-72
2021/11/22 01:22:25;;;;;;;28.48;17.55;;;7.00;99.90;;;;;;5053858;28;20744;-72
2021/11/22 01:24:55;;;;;;;32.85;19.98;;;7.00;99.90;;;;;;5053957;28;20227;-72
2021/11/22 01:27:22;;;;;;;32.95;18.92;;;7.10;99.90;;;;;;5054986;28;20602;-72
2021/11/22 01:29:49;;;;;;;35.65;20.58;;;7.10;99.90;;;;;;5054235;28;20265;-71
2021/11/22 01:32:15;;;;;;;28.88;19.35;;;7.10;99.90;;;;;;5054016;28;20239;-72
2021/11/22 01:34:42;;;;;;;34.20;18.80;;;7.00;99.90;;;;;;5053796;28;20318;-72
2021/11/22 01:37:11;;;;;;;32.45;19.27;;;7.00;99.90;;;;;;5054066;28;20290;-72
2021/11/22 01:39:37;;;;;;;29.63;18.08;;;6.90;99.90;;;;;;5053783;28;20231;-71
2021/11/22 01:42:05;;;;;;;34.40;20.10;;;6.90;99.90;;;;;;5053936;28;20277;-72
2021/11/22 01:44:32;;;;;;;36.92;20.73;;;6.90;99.90;;;;;;5054069;28;20290;-71
2021/11/22 01:46:59;;;;;;;36.63;21.38;;;6.80;99.90;;;;;;5054255;28;20207;-72
2021/11/22 01:49:26;;;;;;;39.42;20.02;;;6.80;99.90;;;;;;5053660;28;20310;-72
2021/11/22 01:51:53;;;;;;;36.85;20.25;;;6.90;99.90;;;;;;5053807;28;20235;-72
2021/11/22 01:54:21;;;;;;;31.73;19.52;;;7.00;99.90;;;;;;5053717;28;20640;-72
2021/11/22 01:56:48;;;;;;;34.60;20.80;;;7.10;99.90;;;;;;5054183;28;20310;-72
2021/11/22 01:59:16;;;;;;;33.28;19.45;;;7.20;99.90;;;;;;5053915;28;20258;-71
2021/11/22 02:01:44;;;;;;;34.60;19.95;;;7.10;99.90;;;;;;5054130;28;20246;-72
2021/11/22 02:04:12;;;;;;;34.78;20.90;;;7.20;99.90;;;;;;5054445;28;20610;-72
2021/11/22 02:06:39;;;;;;;31.52;18.13;;;7.20;99.90;;;;;;5054519;28;20230;-73
2021/11/22 02:09:08;;;;;;;38.60;21.50;;;7.20;99.90;;;;;;5057993;28;20306;-72
2021/11/22 02:11:36;;;;;;;39.55;21.10;;;7.20;99.90;;;;;;5057224;28;20290;-71
2021/11/22 02:14:04;;;;;;;38.45;20.20;;;7.10;99.90;;;;;;5057836;28;20636;-71
2021/11/22 02:16:31;;;;;;;37.15;22.02;;;6.90;99.90;;;;;;5057041;28;20326;-72
2021/11/22 02:18:58;;;;;;;33.20;20.63;;;6.80;99.90;;;;;;5057075;28;20251;-71
2021/11/22 02:21:26;;;;;;;34.85;20.60;;;6.70;99.90;;;;;;5057309;28;20607;-72
2021/11/22 02:23:53;;;;;;;35.17;20.85;;;6.60;99.90;;;;;;5057289;28;20294;-72
2021/11/22 02:26:20;;;;;;;39.72;22.48;;;6.60;99.90;;;;;;5056968;28;20230;-72
2021/11/22 02:28:47;;;;;;;37.90;22.02;;;6.70;99.90;;;;;;5056826;28;20228;-72
2021/11/22 02:31:14;;;;;;;35.47;21.50;;;6.70;99.90;;;;;;5057073;28;20294;-72
2021/11/22 02:33:41;;;;;;;37.47;20.52;;;6.60;99.90;;;;;;5057319;28;20234;-71
2021/11/22 02:36:08;;;;;;;36.08;20.40;;;6.60;99.90;;;;;;5057280;28;20286;-73
2021/11/22 02:38:38;;;;;;;33.85;21.65;;;6.70;99.90;;;;;;5057219;28;20702;-72
2021/11/22 02:41:07;;;;;;;37.50;21.83;;;6.70;99.90;;;;;;5056898;28;20227;-72
2021/11/22 02:43:38;;;;;;;37.83;22.65;;;6.60;99.90;;;;;;5057224;28;20286;-72
2021/11/22 02:46:05;;;;;;;37.47;22.10;;;6.60;99.90;;;;;;5057163;28;20661;-71
2021/11/22 02:48:33;;;;;;;38.90;22.98;;;6.60;99.90;;;;;;5057261;28;20262;-71
2021/11/22 02:51:00;;;;;;;37.20;22.20;;;6.70;99.90;;;;;;5056789;28;20253;-71
2021/11/22 02:53:28;;;;;;;39.38;22.83;;;6.60;99.90;;;;;;5057194;28;20310;-71
2021/11/22 02:56:03;;;;;;;40.20;23.02;;;6.60;99.90;;;;;;5056613;28;20273;-72
2021/11/22 02:58:30;;;;;;;40.15;22.58;;;6.50;99.90;;;;;;5056861;28;20308;-72
2021/11/22 03:00:58;;;;;;;37.33;22.70;;;6.50;99.90;;;;;;5056413;28;20235;-71
2021/11/22 03:03:29;;;;;;;42.53;23.90;;;6.40;99.90;;;;;;5056412;28;20239;-72
2021/11/22 03:06:08;;;;;;;39.78;23.10;;;6.40;99.90;;;;;;5056046;28;20286;-72
2021/11/22 03:08:36;;;;;;;37.00;23.50;;;6.40;99.90;;;;;;5056249;28;20227;-72
2021/11/22 03:11:05;;;;;;;40.55;24.17;;;6.40;99.90;;;;;;5056574;28;20586;-72
2021/11/22 03:13:32;;;;;;;43.65;25.33;;;6.40;99.90;;;;;;5055975;28;20250;-71
2021/11/22 03:16:00;;;;;;;38.67;23.42;;;6.30;99.90;;;;;;5055811;28;20314;-73
2021/11/22 03:18:28;;;;;;;48.67;24.65;;;6.30;99.90;;;;;;5055313;28;20224;-72
2021/11/22 03:20:55;;;;;;;40.83;24.67;;;6.40;99.90;;;;;;5056403;28;20203;-71
2021/11/22 03:23:22;;;;;;;46.75;24.55;;;6.40;99.90;;;;;;5056181;28;20290;-72
2021/11/22 03:25:49;;;;;;;43.78;24.60;;;6.30;99.90;;;;;;5055501;28;20239;-71
2021/11/22 03:28:20;;;;;;;43.28;24.83;;;6.30;99.90;;;;;;5056195;28;20310;-72
2021/11/22 03:30:48;;;;;;;41.47;24.30;;;6.30;99.90;;;;;;5055979;28;20191;-72
2021/11/22 03:33:15;;;;;;;40.55;24.23;;;6.30;99.90;;;;;;5055556;28;20241;-72
2021/11/22 03:35:43;;;;;;;47.25;25.67;;;6.30;99.90;;;;;;5055523;28;20255;-72
2021/11/22 03:38:12;;;;;;;48.28;25.58;;;6.20;99.90;;;;;;5055805;28;20223;-71
2021/11/22 03:40:40;;;;;;;47.92;24.98;;;6.30;99.90;;;;;;5056100;28;20214;-72
2021/11/22 03:43:14;;;;;;;47.13;26.48;;;6.20;99.90;;;;;;5055456;28;20204;-72
2021/11/22 03:45:47;;;;;;;45.45;25.42;;;6.20;99.90;;;;;;5055709;28;20202;-71
2021/11/22 03:48:14;;;;;;;47.03;24.58;;;6.20;99.90;;;;;;5055960;28;20223;-71
2021/11/22 03:50:42;;;;;;;44.92;24.92;;;6.30;99.90;;;;;;5056112;28;20231;-72
2021/11/22 03:53:09;;;;;;;39.85;24.75;;;6.40;99.90;;;;;;5056136;28;20199;-73
2021/11/22 03:55:36;;;;;;;45.67;24.85;;;6.50;99.90;;;;;;5055302;28;20254;-71
2021/11/22 03:58:03;;;;;;;42.35;25.85;;;6.40;99.90;;;;;;5055189;28;20239;-72
2021/11/22 04:00:30;;;;;;;40.13;24.65;;;6.30;99.90;;;;;;5055831;28;20239;-72
2021/11/22 04:02:58;;;;;;;50.33;25.75;;;6.40;99.90;;;;;;5055545;28;20235;-72
2021/11/22 04:05:25;;;;;;;44.08;24.98;;;6.30;99.90;;;;;;5055590;28;20294;-73
2021/11/22 04:07:52;;;;;;;42.15;24.10;;;6.30;99.90;;;;;;5055505;28;20294;-72
2021/11/22 04:10:19;;;;;;;43.35;24.83;;;6.30;99.90;;;;;;5055266;28;20230;-73
2021/11/22 04:12:45;;;;;;;46.85;25.52;;;6.20;99.90;;;;;;5055071;28;20261;-72
2021/11/22 04:15:12;;;;;;;41.75;25.15;;;6.20;99.90;;;;;;5054790;28;20238;-71
2021/11/22 04:17:39;;;;;;;42.88;26.02;;;6.10;99.90;;;;;;5055049;28;20261;-72
2021/11/22 04:20:09;;;;;;;42.90;25.30;;;6.20;99.90;;;;;;5055033;28;20749;-72
2021/11/22 04:22:36;;;;;;;47.92;25.75;;;6.20;99.90;;;;;;5055223;28;20204;-72
2021/11/22 04:25:06;;;;;;;46.22;25.73;;;6.20;99.90;;;;;;5054611;28;20302;-73
2021/11/22 04:27:34;;;;;;;52.13;27.00;;;6.20;99.90;;;;;;5054786;28;20563;-73
2021/11/22 04:30:00;;;;;;;48.00;28.00;;;6.20;99.90;;;;;;5054242;28;20236;-72
2021/11/22 04:32:27;;;;;;;49.72;27.05;;;6.10;99.90;;;;;;5054470;28;20622;-72
2021/11/22 04:34:54;;;;;;;50.85;26.60;;;6.10;99.90;;;;;;5054583;28;20238;-71
2021/11/22 04:37:26;;;;;;;43.15;24.80;;;6.10;99.90;;;;;;5054872;28;20262;-72
2021/11/22 04:39:53;;;;;;;43.83;26.10;;;6.30;99.90;;;;;;5054655;28;20336;-71
2021/11/22 04:42:20;;;;;;;47.13;25.10;;;6.40;99.90;;;;;;5054360;28;20628;-72
2021/11/22 04:44:47;;;;;;;41.13;24.67;;;6.40;99.90;;;;;;5054344;28;20601;-72
2021/11/22 04:47:15;;;;;;;42.92;23.58;;;6.40;99.90;;;;;;5054328;28;20203;-72
2021/11/22 04:49:42;;;;;;;42.88;24.27;;;6.40;99.90;;;;;;5053940;28;20310;-72
2021/11/22 04:52:09;;;;;;;43.70;22.65;;;6.40;99.90;;;;;;5054006;28;20239;-72
2021/11/22 04:54:39;;;;;;;45.95;23.25;;;6.40;99.90;;;;;;5053771;28;20246;-72
2021/11/22 04:57:06;;;;;;;36.92;21.70;;;6.20;99.90;;;;;;5054018;28;20215;-72
2021/11/22 04:59:35;;;;;;;43.08;23.90;;;6.20;99.90;;;;;;5053716;28;20254;-71
2021/11/22 05:02:02;;;;;;;40.83;23.45;;;6.20;99.90;;;;;;5054496;28;20273;-71
2021/11/22 05:04:29;;;;;;;43.33;21.20;;;6.20;99.90;;;;;;5053739;28;20733;-73
2021/11/22 05:06:56;;;;;;;38.17;22.10;;;6.30;99.90;;;;;;5054118;28;20231;-72
2021/11/22 05:09:23;;;;;;;35.13;20.65;;;6.30;99.90;;;;;;5054097;28;20306;-71
2021/11/22 05:11:51;;;;;;;40.30;20.88;;;6.30;99.90;;;;;;5054124;28;20293;-71
2021/11/22 05:14:18;;;;;;;38.78;21.05;;;6.30;99.90;;;;;;5054229;28;20242;-72
2021/11/22 05:16:46;;;;;;;45.92;21.85;;;6.10;99.90;;;;;;5053888;28;20314;-72
2021/11/22 05:19:13;;;;;;;43.80;23.00;;;6.10;99.90;;;;;;5053790;28;20250;-72
2021/11/22 05:21:41;;;;;;;39.30;21.50;;;6.10;99.90;;;;;;5053579;28;20249;-72
2021/11/22 05:24:09;;;;;;;36.90;20.98;;;6.10;99.90;;;;;;5053694;28;20235;-72
2021/11/22 05:26:36;;;;;;;33.45;20.02;;;6.10;99.90;;;;;;5053385;28;20282;-72
2021/11/22 05:29:08;;;;;;;38.25;20.70;;;6.10;99.90;;;;;;5053620;28;20261;-72
2021/11/22 05:31:35;;;;;;;35.38;20.90;;;6.00;99.90;;;;;;5053714;28;20260;-71
2021/11/22 05:34:03;;;;;;;44.00;21.88;;;6.00;99.90;;;;;;5053712;28;20204;-71
2021/11/22 05:36:31;;;;;;;37.85;21.85;;;5.90;99.90;;;;;;5053744;28;20254;-72
2021/11/22 05:38:58;;;;;;;40.50;23.15;;;5.80;99.90;;;;;;5054023;28;20705;-72
2021/11/22 05:41:25;;;;;;;41.65;22.42;;;5.80;99.90;;;;;;5053356;28;20214;-72
2021/11/22 05:43:52;;;;;;;42.33;24.35;;;5.90;99.90;;;;;;5054580;28;20242;-72
2021/11/22 05:46:20;;;;;;;43.88;22.10;;;5.90;99.90;;;;;;5053763;28;20627;-72
2021/11/22 05:48:47;;;;;;;40.10;21.98;;;5.90;99.90;;;;;;5053649;28;20744;-72
2021/11/22 05:51:15;;;;;;;38.88;21.88;;;6.00;99.90;;;;;;5053524;28;20234;-72
2021/11/22 05:53:43;;;;;;;39.53;21.58;;;6.10;99.90;;;;;;5053535;28;20199;-72
2021/11/22 05:56:10;;;;;;;36.55;19.83;;;6.10;99.90;;;;;;5053251;28;20223;-72
2021/11/22 05:58:39;;;;;;;37.05;22.02;;;6.00;99.90;;;;;;5053107;28;20223;-73
2021/11/22 06:01:07;;;;;;;38.95;19.55;;;5.90;99.90;;;;;;5054070;28;20623;-72
2021/11/22 06:03:35;;;;;;;37.90;21.13;;;5.90;99.90;;;;;;5053186;28;20245;-71
2021/11/22 06:06:03;;;;;;;39.67;20.52;;;5.90;99.90;;;;;;5053000;28;20286;-72
2021/11/22 06:08:30;;;;;;;38.83;20.88;;;5.90;99.90;;;;;;5053168;28;20258;-71
2021/11/22 06:10:57;;;;;;;33.38;18.75;;;5.80;99.90;;;;;;5053007;28;20208;-72
2021/11/22 06:13:24;;;;;;;33.45;19.45;;;5.90;99.90;;;;;;5052994;28;20261;-72
2021/11/22 06:15:51;;;;;;;35.80;19.45;;;6.00;99.90;;;;;;5052668;28;20253;-72
2021/11/22 06:18:19;;;;;;;35.38;19.17;;;6.20;99.90;;;;;;5053101;28;20262;-71
2021/11/22 06:20:47;;;;;;;34.72;19.70;;;6.10;99.90;;;;;;5053136;28;20621;-72
2021/11/22 06:23:15;;;;;;;32.30;18.73;;;6.00;99.90;;;;;;5053075;28;20212;-72
2021/11/22 06:25:42;;;;;;;30.92;17.75;;;6.10;99.90;;;;;;5052917;28;20551;-72
2021/11/22 06:28:09;;;;;;;29.70;18.55;;;6.20;99.90;;;;;;5052757;28;20273;-72
2021/11/22 06:30:36;;;;;;;30.15;17.77;;;6.10;99.90;;;;;;5053065;28;20200;-72
2021/11/22 06:33:03;;;;;;;29.17;17.38;;;6.00;99.90;;;;;;5053042;28;20207;-72
2021/11/22 06:35:30;;;;;;;28.90;18.60;;;6.10;99.90;;;;;;5053013;28;20235;-72
2021/11/22 06:37:58;;;;;;;25.20;15.80;;;6.20;99.90;;;;;;5053837;28;20258;-73
2021/11/22 06:40:25;;;;;;;25.40;16.98;;;6.30;99.90;;;;;;5054085;28;20291;-72
2021/11/22 06:42:52;;;;;;;27.63;16.50;;;6.40;99.90;;;;;;5054117;28;20231;-72
2021/11/22 06:45:19;;;;;;;25.75;15.32;;;6.50;99.90;;;;;;5053651;28;20242;-72
2021/11/22 06:47:46;;;;;;;24.73;14.70;;;6.60;99.90;;;;;;5053459;28;20609;-72
2021/11/22 06:50:15;;;;;;;26.20;15.32;;;6.40;99.90;;;;;;5052870;28;20207;-72
2021/11/22 06:52:42;;;;;;;24.00;15.43;;;6.30;99.90;;;;;;5053426;28;20303;-73
2021/11/22 06:55:10;;;;;;;24.85;15.25;;;6.20;99.90;;;;;;5055875;28;20753;-72
2021/11/22 06:57:38;;;;;;;30.15;17.17;;;6.20;99.90;;;;;;5056834;28;20223;-72
2021/11/22 07:00:07;;;;;;;25.90;15.50;;;6.00;99.90;;;;;;5057064;28;20314;-72
2021/11/22 07:02:34;;;;;;;30.60;16.52;;;5.90;99.90;;;;;;5056660;28;20204;-73
2021/11/22 07:05:01;;;;;;;26.05;16.50;;;5.90;99.90;;;;;;5056776;28;20250;-72
2021/11/22 07:07:28;;;;;;;24.33;16.08;;;6.00;99.90;;;;;;5056659;28;20246;-72
2021/11/22 07:09:55;;;;;;;23.45;15.77;;;6.00;99.90;;;;;;5056802;28;20311;-73
2021/11/22 07:12:23;;;;;;;24.35;14.68;;;6.00;99.90;;;;;;5056512;28;20204;-72
2021/11/22 07:14:50;;;;;;;21.48;15.00;;;6.00;99.90;;;;;;5056289;28;20295;-73
2021/11/22 07:17:17;;;;;;;24.23;14.80;;;6.00;99.90;;;;;;5056470;28;20754;-73
2021/11/22 07:19:44;;;;;;;22.08;14.95;;;6.00;99.90;;;;;;5056455;28;20271;-72
2021/11/22 07:22:13;;;;;;;20.20;12.50;;;6.00;99.90;;;;;;5056629;28;20249;-73
2021/11/22 07:24:42;;;;;;;19.83;12.77;;;6.00;99.90;;;;;;5056175;28;20676;-71
2021/11/22 07:27:10;;;;;;;24.63;14.65;;;6.00;99.90;;;;;;5056290;28;20235;-72
2021/11/22 07:29:39;;;;;;;22.88;14.75;;;6.00;99.90;;;;;;5056003;28;20581;-72
2021/11/22 07:32:06;;;;;;;20.63;13.45;;;6.10;99.90;;;;;;5056103;28;20250;-72
2021/11/22 07:34:33;;;;;;;23.15;14.73;;;6.10;99.90;;;;;;5055722;28;20261;-73
2021/11/22 07:37:00;;;;;;;22.45;13.15;;;6.20;99.90;;;;;;5056268;28;20328;-72
2021/11/22 07:39:27;;;;;;;18.83;12.90;;;6.20;99.90;;;;;;5056414;28;20262;-72
2021/11/22 07:41:56;;;;;;;17.52;12.80;;;6.20;99.90;;;;;;5056176;28;20242;-72
2021/11/22 07:44:24;;;;;;;22.38;13.82;;;6.20;99.90;;;;;;5055833;28;20203;-73
2021/11/22 07:46:53;;;;;;;19.13;13.32;;;6.30;99.90;;;;;;5055624;28;20203;-72
2021/11/22 07:49:21;;;;;;;19.38;12.40;;;6.20;99.90;;;;;;5055988;28;20263;-72
2021/11/22 07:51:48;;;;;;;16.35;12.35;;;6.20;99.90;;;;;;5056246;28;20618;-72
2021/11/22 07:54:15;;;;;;;18.98;12.60;;;6.30;99.90;;;;;;5056653;28;20239;-73
2021/11/22 07:56:43;;;;;;;20.40;12.95;;;6.40;99.90;;;;;;5055314;28;20574;-72
2021/11/22 07:59:10;;;;;;;21.02;12.88;;;6.30;99.90;;;;;;5055667;28;20262;-72
2021/11/22 08:01:38;;;;;;;22.05;14.02;;;6.30;99.90;;;;;;5055668;28;20289;-72
2021/11/22 08:04:12;;;;;;;18.23;13.15;;;6.30;99.90;;;;;;5055309;28;20700;-72
2021/11/22 08:06:40;;;;;;;19.90;13.25;;;6.40;99.90;;;;;;5055941;28;20242;-73
2021/11/22 08:09:13;;;;;;;24.00;15.07;;;6.40;99.90;;;;;;5055981;28;20627;-73
2021/11/22 08:11:49;;;;;;;19.77;13.40;;;6.50;99.90;;;;;;5055790;28;20543;-73
2021/11/22 08:14:15;;;;;;;21.77;13.45;;;6.50;99.90;;;;;;5056056;28;20199;-72
2021/11/22 08:16:42;;;;;;;21.33;13.10;;;6.50;99.90;;;;;;5055701;28;20302;-73
2021/11/22 08:19:11;;;;;;;23.48;13.88;;;6.60;99.90;;;;;;5056250;28;20270;-72
2021/11/22 08:21:38;;;;;;;22.17;13.15;;;6.60;99.90;;;;;;5055464;28;20234;-72
2021/11/22 08:24:05;;;;;;;20.15;14.32;;;6.50;99.90;;;;;;5055574;28;20290;-72
2021/11/22 08:26:32;;;;;;;21.60;13.95;;;6.60;99.90;;;;;;5055018;28;20203;-72
2021/11/22 08:28:59;;;;;;;22.77;14.60;;;6.50;99.90;;;;;;5054976;28;20262;-72
2021/11/22 08:31:26;;;;;;;22.73;14.23;;;6.40;99.90;;;;;;5055439;28;20230;-73
2021/11/22 08:33:53;;;;;;;20.83;14.05;;;6.40;99.90;;;;;;5055303;28;20199;-72
2021/11/22 08:36:21;;;;;;;19.95;13.95;;;6.50;99.90;;;;;;5055050;28;20235;-72
2021/11/22 08:38:49;;;;;;;24.38;14.65;;;6.60;99.90;;;;;;5055027;28;20231;-72
2021/11/22 08:41:16;;;;;;;18.42;14.27;;;6.60;99.90;;;;;;5055028;28;20268;-72
2021/11/22 08:43:43;;;;;;;22.92;14.10;;;6.80;99.90;;;;;;5055332;28;20242;-72
2021/11/22 08:46:10;;;;;;;18.70;13.85;;;6.80;99.90;;;;;;5055482;28;20238;-72
2021/11/22 08:48:36;;;;;;;22.23;14.43;;;6.80;99.90;;;;;;5054955;28;20215;-72
2021/11/22 08:51:04;;;;;;;24.35;15.82;;;6.80;99.90;;;;;;5054778;28;20239;-72
2021/11/22 08:53:33;;;;;;;22.33;14.63;;;6.60;99.90;;;;;;5054582;28;20207;-72
2021/11/22 08:55:59;;;;;;;25.08;14.65;;;6.60;99.90;;;;;;5054840;28;20199;-72
2021/11/22 08:58:27;;;;;;;23.05;13.60;;;6.60;99.90;;;;;;5054172;28;20259;-72
2021/11/22 09:00:54;;;;;;;22.80;14.25;;;6.60;99.90;;;;;;5054190;28;20280;-72
2021/11/22 09:03:20;;;;;;;18.13;12.93;;;6.70;99.90;;;;;;5054017;28;20289;-72
2021/11/22 09:05:47;;;;;;;19.88;13.48;;;6.80;99.90;;;;;;5053825;28;20239;-72
2021/11/22 09:08:16;;;;;;;19.30;14.35;;;7.00;99.90;;;;;;5053928;28;20669;-72
2021/11/22 09:10:44;;;;;;;20.35;13.15;;;7.00;99.90;;;;;;5054264;28;20199;-72
2021/11/22 09:13:14;;;;;;;18.38;12.50;;;7.10;99.90;;;;;;5053964;28;20286;-72
2021/11/22 09:15:42;;;;;;;17.83;12.77;;;7.10;99.90;;;;;;5053179;28;20253;-72
2021/11/22 09:18:09;;;;;;;22.58;13.90;;;7.00;99.90;;;;;;5052936;28;20228;-72
2021/11/22 09:20:36;;;;;;;17.63;12.10;;;7.00;99.90;;;;;;5053866;28;20298;-72
2021/11/22 09:23:04;;;;;;;20.95;12.88;;;7.10;99.90;;;;;;5053845;28;20298;-72
2021/11/22 09:25:31;;;;;;;18.50;12.73;;;7.20;99.90;;;;;;5053423;28;20207;-72
2021/11/22 09:28:00;;;;;;;18.95;13.02;;;7.10;99.90;;;;;;5053643;28;20234;-72
2021/11/22 09:30:28;;;;;;;25.15;13.80;;;7.10;99.90;;;;;;5053367;28;20242;-72
2021/11/22 09:32:55;;;;;;;18.58;13.82;;;7.20;99.90;;;;;;5053594;28;20207;-72
2021/11/22 09:35:25;;;;;;;19.85;13.40;;;7.10;99.90;;;;;;5053483;28;20620;-72
2021/11/22 09:37:53;;;;;;;21.77;14.10;;;6.90;99.90;;;;;;5053309;28;20318;-72
2021/11/22 09:40:20;;;;;;;24.20;14.23;;;6.80;99.90;;;;;;5053759;28;20200;-72
2021/11/22 09:42:46;;;;;;;21.67;14.95;;;6.90;99.90;;;;;;5053432;28;20260;-72
2021/11/22 09:45:19;;;;;;;21.50;13.88;;;6.90;99.90;;;;;;5053042;28;20257;-72
2021/11/22 09:47:45;;;;;;;23.67;14.07;;;7.00;99.90;;;;;;5053653;28;20265;-72
2021/11/22 09:50:12;;;;;;;20.80;13.95;;;7.10;99.90;;;;;;5053143;28;20262;-72
2021/11/22 09:52:39;;;;;;;18.45;14.07;;;7.20;99.90;;;;;;5053414;28;20280;-72
2021/11/22 09:55:07;;;;;;;19.08;13.15;;;7.20;99.90;;;;;;5053004;28;20231;-72
2021/11/22 09:57:33;;;;;;;17.50;12.98;;;7.30;99.90;;;;;;5053454;28;20302;-72
2021/11/22 10:00:01;;;;;;;19.25;13.20;;;7.30;99.90;;;;;;5054138;28;20255;-72
2021/11/22 10:02:44;;;;;;;20.40;13.90;;;7.40;99.90;;;;;;5054095;28;20207;-72
2021/11/22 10:05:22;;;;;;;16.42;13.77;;;7.40;99.90;;;;;;5054325;28;20204;-72
2021/11/22 10:08:00;;;;;;;18.23;13.45;;;7.30;99.90;;;;;;5054556;28;20231;-73
2021/11/22 10:10:36;;;;;;;17.30;13.55;;;7.30;99.90;;;;;;5054348;28;20670;-73
2021/11/22 10:13:28;;;;;;;21.17;14.02;;;7.30;99.90;;;;;;5054521;28;20290;-72
2021/11/22 10:15:58;;;;;;;19.58;12.57;;;7.30;99.90;;;;;;5054125;28;20211;-73
2021/11/22 10:18:28;;;;;;;17.67;12.32;;;7.40;99.90;;;;;;5054268;28;20638;-72
2021/11/22 10:20:56;;;;;;;17.38;12.52;;;7.60;99.90;;;;;;5054618;28;20207;-72
2021/11/22 10:23:25;;;;;;;17.20;12.23;;;7.70;99.90;;;;;;5054139;28;20704;-72
2021/11/22 10:25:54;;;;;;;15.57;12.38;;;7.80;99.90;;;;;;5054267;28;20235;-72
2021/11/22 10:28:23;;;;;;;16.95;12.55;;;7.60;99.90;;;;;;5056299;28;20229;-73
2021/11/22 10:30:52;;;;;;;15.95;11.88;;;7.70;99.90;;;;;;5058063;28;20231;-72
2021/11/22 10:33:21;;;;;;;16.45;11.77;;;7.70;99.90;;;;;;5057908;28;20280;-72
2021/11/22 10:35:52;;;;;;;18.65;12.95;;;7.80;99.90;;;;;;5058135;28;20333;-72
2021/11/22 10:38:21;;;;;;;18.10;12.75;;;7.80;99.90;;;;;;5057616;28;20227;-73
2021/11/22 10:40:50;;;;;;;18.23;13.55;;;7.60;99.90;;;;;;5057605;28;20238;-72
2021/11/22 10:43:17;;;;;;;20.30;13.23;;;7.50;99.90;;;;;;5057286;28;20238;-72
2021/11/22 10:45:46;;;;;;;15.82;11.98;;;7.60;99.90;;;;;;5057612;28;20615;-72
2021/11/22 10:48:21;;;;;;;17.67;11.43;;;7.80;99.90;;;;;;5057702;28;20589;-72
2021/11/22 10:51:02;;;;;;;17.80;11.90;;;7.80;99.90;;;;;;5057652;28;20183;-72
2021/11/22 10:53:35;;;;;;;15.52;11.57;;;7.80;99.90;;;;;;5057446;28;20623;-72
2021/11/22 10:56:04;;;;;;;15.75;10.90;;;7.80;99.90;;;;;;5057491;28;20222;-72
2021/11/22 10:58:38;;;;;;;19.85;12.63;;;7.90;99.90;;;;;;5057516;28;20265;-73
2021/11/22 11:01:15;;;;;;;21.73;12.13;;;7.80;99.90;;;;;;5058042;28;20192;-72
2021/11/22 11:03:52;;;;;;;17.60;10.77;;;7.90;99.90;;;;;;5057775;28;20242;-72
2021/11/22 11:06:21;;;;;;;17.08;12.07;;;8.00;99.90;;;;;;5057254;28;20732;-73
2021/11/22 11:08:52;;;;;;;19.23;12.82;;;8.00;99.90;;;;;;5057382;28;20314;-73
2021/11/22 11:11:18;;;;;;;19.80;12.52;;;7.90;99.90;;;;;;5057250;28;20256;-72
2021/11/22 11:13:47;;;;;;;17.02;11.65;;;8.00;99.90;;;;;;5057208;28;20235;-72
2021/11/22 11:16:14;;;;;;;17.55;12.40;;;8.10;99.90;;;;;;5057176;28;20306;-73
2021/11/22 11:18:42;;;;;;;19.52;13.60;;;8.00;99.90;;;;;;5056688;28;20259;-73
2021/11/22 11:21:09;;;;;;;18.98;12.98;;;7.60;99.90;;;;;;5056733;28;20613;-73
2021/11/22 11:23:38;;;;;;;21.75;12.98;;;7.50;99.90;;;;;;5056808;28;20207;-73
2021/11/22 11:26:05;;;;;;;17.35;11.35;;;7.50;99.90;;;;;;5056831;28;20243;-72
2021/11/22 11:28:32;;;;;;;17.85;11.57;;;7.60;99.90;;;;;;5056451;28;20306;-72
2021/11/22 11:30:59;;;;;;;15.70;10.48;;;7.70;99.90;;;;;;5056691;28;20237;-72
2021/11/22 11:33:26;;;;;;;21.20;13.02;;;7.50;99.90;;;;;;5056488;28;20290;-72
2021/11/22 11:36:03;;;;;;;17.10;11.50;;;7.40;99.90;;;;;;5056332;28;20238;-72
2021/11/22 11:38:41;;;;;;;14.00;10.88;;;7.40;99.90;;;;;;5056001;28;20227;-72
2021/11/22 11:41:17;;;;;;;15.40;10.23;;;7.50;99.90;;;;;;5055773;28;20234;-72
2021/11/22 11:44:10;;;;;;;16.48;10.95;;;7.70;99.90;;;;;;5056228;28;20539;-72
2021/11/22 11:46:54;;;;;;;19.35;11.45;;;7.70;99.90;;;;;;5055986;28;20298;-72
2021/11/22 11:49:31;;;;;;;14.07;10.27;;;7.70;99.90;;;;;;5056292;28;20306;-72
2021/11/22 11:51:58;;;;;;;24.85;10.27;;;7.80;99.90;;;;;;5056712;28;20219;-73
2021/11/22 11:54:27;;;;;;;14.38;10.63;;;7.80;99.90;;;;;;5056201;28;20212;-73
2021/11/22 11:56:57;;;;;;;18.23;10.05;;;7.90;99.90;;;;;;5056027;28;20572;-72
2021/11/22 11:59:33;;;;;;;12.60;10.10;;;7.90;99.90;;;;;;5055970;28;20259;-72
2021/11/22 12:02:03;;;;;;;14.27;9.23;;;7.80;99.90;;;;;;5055755;28;20213;-72
2021/11/22 12:04:46;;;;;;;16.60;9.85;;;7.60;99.90;;;;;;5055720;28;20234;-72
2021/11/22 12:07:22;;;;;;;15.55;10.10;;;7.70;99.90;;;;;;5055757;28;20573;-73
2021/11/22 12:10:04;;;;;;;12.48;8.30;;;7.70;99.90;;;;;;5055951;28;20310;-72
2021/11/22 12:12:35;;;;;;;11.45;8.50;;;7.70;99.90;;;;;;5055627;28;20298;-72
2021/11/22 12:15:05;;;;;;;11.48;8.30;;;7.80;99.90;;;;;;5055304;28;20231;-73
2021/11/22 12:17:57;;;;;;;13.25;9.50;;;7.60;99.90;;;;;;5055544;28;20737;-72
2021/11/22 12:20:56;;;;;;;11.82;8.02;;;7.60;99.90;;;;;;5046966;28;20290;-72
2021/11/22 12:23:29;;;;;;;11.52;8.27;;;7.50;99.90;;;;;;5055062;28;20627;-72
2021/11/22 12:25:58;;;;;;;12.27;7.85;;;7.40;99.90;;;;;;5054796;28;20210;-73
2021/11/22 12:28:55;;;;;;;11.70;7.70;;;7.30;99.90;;;;;;5055019;28;20220;-73
2021/11/22 12:31:28;;;;;;;10.63;7.70;;;7.40;99.90;;;;;;5054583;28;20685;-72
2021/11/22 12:33:58;;;;;;;11.63;8.05;;;7.40;99.90;;;;;;5054810;28;20239;-73
2021/11/22 12:36:37;;;;;;;10.30;8.15;;;7.40;99.90;;;;;;5055634;28;20230;-73
2021/11/22 12:39:12;;;;;;;11.75;7.72;;;7.50;99.90;;;;;;5055446;28;20258;-72
2021/11/22 12:41:39;;;;;;;10.32;7.75;;;7.50;99.90;;;;;;5055232;28;20637;-72
2021/11/22 12:44:11;;;;;;;11.13;7.88;;;7.60;99.90;;;;;;5055137;28;20206;-72
2021/11/22 12:46:51;;;;;;;9.60;7.50;;;7.60;99.90;;;;;;5054935;28;20215;-73